KGRY

Green Canyon 338

Green Canyon 338, Louisiana, USA
METAR KGRY 131420Z AUTO 16023KT 6SM HZ FEW022 SCT029 SCT050 22/18 A2991 RMK A01
Observed Flight Rules
Dec-13 @ 14:20 UTC (22 hours ago) Visual Flight Rules
Wind Visibility Clouds Conditions
160° at 23 knots 6 miles
  • Few at 2,200' AGL
  • Scattered at 2,900' AGL
  • Scattered at 5,000' AGL
  • Haze
Temperatures Readings
Current 22°C / 72°F
Dewpoint 18°C / 64°F
Humidity 78%
Altimeter 29.91" Hg
Pressure 1013 hPa
Elevation 58
METAR KGRY 131420Z AUTO 16023KT 6SM HZ FEW022 SCT029 SCT050 22/18 A2991 RMK A01
Observed Flight Rules
Dec-13 @ 14:20 UTC
(22 hours ago)
VFR
Wind Visibility
160° at 23 knots 6 miles
Clouds
  • Few at 2,200' AGL
  • Scattered at 2,900' AGL
  • Scattered at 5,000' AGL
Conditions
  • Haze
Temperature Dewpoint
22°C / 72°F 18°C / 64°F
Humidity Altimeter Pressure
78% 29.91" Hg 1013 hPa